Terminal Aerodrome Forecast
Issued by NWS Jackson, KY

Home | Current Version | Previous Version | Text Only | Print | Product List | Glossary On
Versions: 1 2 3 4 5 6 7 8 9 10 11 12 13 14 15 16 17 18 19 20 21 22 23
841
FTUS43 KJKL 250539
TAFJKL
TAF
KJKL 250539Z 2506/2606 19010G20KT 5SM -TSRA BR SCT025 BKN050CB
     FM250700 23008KT 6SM SHRA BR VCTS OVC100CB
     FM250800 29009KT P6SM VCSH OVC035
     FM251200 27010KT P6SM VCSH OVC060
     FM260000 28009KT P6SM BKN040=

USA.gov is the U.S. government's official web portal to all federal, state and local government web resources and services.